createdAt,value
2023-05-08T00:00:17.933Z,39.19
2023-05-08T00:01:18.005Z,39.18
2023-05-08T00:02:18.027Z,39.20
2023-05-08T00:03:18.095Z,39.19
2023-05-08T00:04:18.136Z,39.19
2023-05-08T00:05:18.126Z,39.20
2023-05-08T00:06:18.161Z,39.21
2023-05-08T00:07:18.164Z,39.18
2023-05-08T00:08:18.180Z,39.20
2023-05-08T00:09:18.278Z,39.18
2023-05-08T00:10:18.248Z,39.21
2023-05-08T00:11:18.303Z,39.19
2023-05-08T00:12:18.298Z,39.20
2023-05-08T00:13:18.371Z,39.19
2023-05-08T00:14:18.404Z,39.19
2023-05-08T00:15:18.408Z,39.17
2023-05-08T00:16:18.572Z,39.19
2023-05-08T00:17:18.452Z,39.17
2023-05-08T00:18:18.521Z,39.15
2023-05-08T00:19:18.552Z,39.20
2023-05-08T00:20:18.607Z,39.20
2023-05-08T00:21:18.628Z,39.19
2023-05-08T00:22:18.641Z,39.17
2023-05-08T00:23:18.678Z,39.18
2023-05-08T00:24:18.684Z,39.18
2023-05-08T00:25:18.763Z,39.17
2023-05-08T00:26:18.768Z,39.19
2023-05-08T00:27:18.837Z,39.20
2023-05-08T00:28:18.830Z,39.15
2023-05-08T00:29:19.148Z,39.20
2023-05-08T00:30:18.944Z,39.19
2023-05-08T00:31:18.954Z,39.18
2023-05-08T00:32:19.064Z,39.20
2023-05-08T00:33:19.003Z,39.18
2023-05-08T00:34:19.032Z,39.19
2023-05-08T00:35:19.116Z,39.17
2023-05-08T00:36:19.132Z,39.19
2023-05-08T00:37:19.160Z,39.20
2023-05-08T00:38:19.212Z,39.18
2023-05-08T00:39:19.271Z,39.22
2023-05-08T00:40:19.248Z,39.19
2023-05-08T00:41:19.287Z,39.18
2023-05-08T00:42:19.302Z,39.21
2023-05-08T00:43:19.325Z,39.19
2023-05-08T00:44:19.623Z,39.23
2023-05-08T00:45:19.439Z,39.20
2023-05-08T00:46:19.515Z,39.20
2023-05-08T00:47:19.480Z,39.20
2023-05-08T00:48:19.495Z,39.19
2023-05-08T00:49:19.545Z,39.20
2023-05-08T00:50:19.564Z,39.18
2023-05-08T00:51:19.659Z,39.17
2023-05-08T00:52:19.661Z,39.20
2023-05-08T00:53:19.709Z,39.19
2023-05-08T00:54:19.740Z,39.22
2023-05-08T00:55:19.749Z,39.20
2023-05-08T00:56:19.785Z,39.21
2023-05-08T00:57:19.848Z,39.16
2023-05-08T00:58:19.847Z,39.18
2023-05-08T00:59:19.923Z,39.17
2023-05-08T01:00:19.946Z,39.19
2023-05-08T01:01:20.695Z,39.19
2023-05-08T01:02:19.999Z,39.19
2023-05-08T01:03:20.153Z,39.17
2023-05-08T01:04:20.107Z,39.20
2023-05-08T01:05:20.166Z,39.19
2023-05-08T01:06:20.182Z,39.19
2023-05-08T01:07:20.213Z,39.19
2023-05-08T01:08:20.275Z,39.19
2023-05-08T01:09:20.272Z,39.20
2023-05-08T01:10:20.326Z,39.19
2023-05-08T01:11:20.447Z,39.17
2023-05-08T01:12:20.391Z,39.16
2023-05-08T01:13:20.603Z,39.18
2023-05-08T01:14:20.515Z,39.19
2023-05-08T01:15:20.532Z,39.18
2023-05-08T01:16:20.659Z,39.18
2023-05-08T01:17:20.659Z,39.16
2023-05-08T01:18:20.667Z,39.20
2023-05-08T01:19:20.667Z,39.20
2023-05-08T01:20:20.751Z,39.22
2023-05-08T01:21:20.821Z,39.20
2023-05-08T01:22:20.800Z,39.19
2023-05-08T01:23:20.835Z,39.18
2023-05-08T01:24:20.878Z,39.18
2023-05-08T01:25:20.918Z,39.18
2023-05-08T01:26:20.990Z,39.19
2023-05-08T01:27:20.985Z,39.17
2023-05-08T01:28:21.025Z,39.19
2023-05-08T01:29:21.056Z,39.18
2023-05-08T01:30:21.173Z,39.20
2023-05-08T01:31:21.195Z,39.21
2023-05-08T01:32:21.270Z,39.18
2023-05-08T01:33:21.298Z,39.21
2023-05-08T01:34:21.285Z,39.19
2023-05-08T01:35:21.338Z,39.19
2023-05-08T01:36:21.385Z,39.18
2023-05-08T01:37:21.413Z,39.19
2023-05-08T01:38:21.469Z,39.20
2023-05-08T01:39:21.492Z,39.20
2023-05-08T01:40:21.567Z,39.19
2023-05-08T01:41:21.578Z,39.20
2023-05-08T01:42:21.617Z,39.19
2023-05-08T01:43:21.664Z,39.20
2023-05-08T01:44:21.732Z,39.17
2023-05-08T01:45:21.760Z,39.16
2023-05-08T01:46:21.827Z,39.20
2023-05-08T01:47:21.820Z,39.20
2023-05-08T01:48:21.853Z,39.19
2023-05-08T01:49:21.931Z,39.17
2023-05-08T01:50:21.945Z,39.19
2023-05-08T01:51:21.976Z,39.18
2023-05-08T01:52:22.033Z,39.18
2023-05-08T01:53:22.076Z,39.17
2023-05-08T01:54:22.134Z,39.17
2023-05-08T01:55:22.188Z,39.18
2023-05-08T01:56:22.180Z,39.16
2023-05-08T01:57:22.202Z,39.17
2023-05-08T01:58:22.249Z,39.18
2023-05-08T01:59:22.318Z,39.19
2023-05-08T02:00:22.332Z,39.19
2023-05-08T02:01:22.446Z,39.18
2023-05-08T02:02:22.502Z,39.19
2023-05-08T02:03:22.498Z,39.21
2023-05-08T02:04:22.544Z,39.18
2023-05-08T02:05:22.556Z,39.19
2023-05-08T02:06:22.557Z,39.19
2023-05-08T02:07:22.597Z,39.21
2023-05-08T02:08:22.660Z,39.18
2023-05-08T02:09:22.734Z,39.21
2023-05-08T02:10:22.731Z,39.17
2023-05-08T02:11:22.737Z,39.15
2023-05-08T02:12:22.765Z,39.19
2023-05-08T02:13:22.869Z,39.19
2023-05-08T02:14:22.844Z,39.19
2023-05-08T02:15:22.870Z,39.19
2023-05-08T02:16:22.935Z,39.17
2023-05-08T02:17:23.001Z,39.16
2023-05-08T02:18:22.996Z,39.19
2023-05-08T02:19:23.673Z,39.16
2023-05-08T02:20:23.078Z,39.17
2023-05-08T02:21:23.096Z,39.17
2023-05-08T02:22:23.181Z,39.18
2023-05-08T02:23:23.207Z,39.16
2023-05-08T02:24:23.239Z,39.17
2023-05-08T02:25:23.290Z,39.18
2023-05-08T02:26:23.289Z,39.18
2023-05-08T02:27:23.344Z,39.16
2023-05-08T02:28:23.391Z,39.14
2023-05-08T02:29:23.667Z,39.16
2023-05-08T02:30:23.465Z,39.18
2023-05-08T02:31:23.510Z,39.17
2023-05-08T02:32:23.657Z,39.17
2023-05-08T02:33:23.575Z,39.19
2023-05-08T02:34:23.601Z,39.15
2023-05-08T02:35:23.698Z,39.17
2023-05-08T02:36:23.682Z,39.16
2023-05-08T02:37:23.759Z,39.17
2023-05-08T02:38:23.786Z,39.19
2023-05-08T02:39:23.834Z,39.17
2023-05-08T02:40:23.861Z,39.18
2023-05-08T02:41:23.915Z,39.16
2023-05-08T02:42:23.940Z,39.16
2023-05-08T02:43:24.031Z,39.19
2023-05-08T02:44:24.018Z,39.18
2023-05-08T02:45:24.107Z,39.20
2023-05-08T02:46:24.169Z,39.17
2023-05-08T02:47:24.163Z,39.20
2023-05-08T02:48:24.204Z,39.19
2023-05-08T02:49:24.254Z,39.18
2023-05-08T02:50:24.272Z,39.20
2023-05-08T02:51:24.319Z,39.18
2023-05-08T02:52:24.385Z,39.21
2023-05-08T02:53:24.399Z,39.17
2023-05-08T02:54:24.472Z,39.18
2023-05-08T02:55:24.504Z,39.18
2023-05-08T02:56:24.546Z,39.19
2023-05-08T02:57:24.607Z,39.18
2023-05-08T02:58:24.635Z,39.18
2023-05-08T02:59:24.692Z,39.18
2023-05-08T03:00:24.740Z,39.17
2023-05-08T03:01:24.783Z,39.19
2023-05-08T03:02:24.980Z,39.16
2023-05-08T03:03:25.031Z,39.14
2023-05-08T03:04:24.910Z,39.17
2023-05-08T03:05:24.967Z,39.17
2023-05-08T03:06:24.997Z,39.18
2023-05-08T03:07:25.037Z,39.17
2023-05-08T03:08:25.133Z,39.18
2023-05-08T03:09:25.138Z,39.17
2023-05-08T03:10:26.214Z,39.18
2023-05-08T03:11:25.216Z,39.15
2023-05-08T03:12:25.289Z,39.18
2023-05-08T03:13:25.342Z,39.19
2023-05-08T03:14:25.357Z,39.16
2023-05-08T03:15:25.416Z,39.17
2023-05-08T03:16:25.578Z,39.20
2023-05-08T03:17:25.547Z,39.18
2023-05-08T03:18:25.520Z,39.20
2023-05-08T03:19:25.576Z,39.19
2023-05-08T03:20:25.651Z,39.16
2023-05-08T03:21:25.674Z,39.18
2023-05-08T03:22:25.717Z,39.18
2023-05-08T03:23:25.754Z,39.16
2023-05-08T03:24:25.859Z,39.20
2023-05-08T03:25:25.866Z,39.16
2023-05-08T03:26:25.871Z,39.16
2023-05-08T03:27:25.922Z,39.17
2023-05-08T03:28:25.983Z,39.16
2023-05-08T03:29:26.020Z,39.17
2023-05-08T03:30:26.086Z,39.17
2023-05-08T03:31:26.154Z,39.17
2023-05-08T03:32:26.226Z,39.17
2023-05-08T03:33:26.201Z,39.17
2023-05-08T03:34:26.250Z,39.17
2023-05-08T03:35:26.297Z,39.14
2023-05-08T03:36:26.354Z,39.18
2023-05-08T03:37:26.371Z,39.16
2023-05-08T03:38:26.444Z,39.19
2023-05-08T03:39:26.469Z,39.17
2023-05-08T03:40:26.525Z,39.16
2023-05-08T03:41:26.549Z,39.17
2023-05-08T03:42:26.601Z,39.18
2023-05-08T03:43:26.646Z,39.16
2023-05-08T03:44:26.682Z,39.16
2023-05-08T03:45:26.764Z,39.16
2023-05-08T03:46:26.883Z,39.16
2023-05-08T03:47:26.911Z,39.15
2023-05-08T03:48:26.874Z,39.15
2023-05-08T03:49:26.944Z,39.16
2023-05-08T03:50:26.979Z,39.15
2023-05-08T03:51:27.003Z,39.15
2023-05-08T03:52:27.110Z,39.15
2023-05-08T03:53:27.104Z,39.16
2023-05-08T03:54:27.146Z,39.18
2023-05-08T03:55:27.203Z,39.17
2023-05-08T03:56:27.234Z,39.18
2023-05-08T03:57:27.302Z,39.17
2023-05-08T03:58:27.370Z,39.15
2023-05-08T03:59:27.394Z,39.15
2023-05-08T04:00:27.464Z,39.18
2023-05-08T04:01:27.470Z,39.17
2023-05-08T04:02:27.736Z,39.18
2023-05-08T04:03:27.699Z,39.15
2023-05-08T04:04:27.632Z,39.19
2023-05-08T04:05:27.714Z,39.19
2023-05-08T04:06:30.816Z,39.18
2023-05-08T04:07:28.713Z,39.17
2023-05-08T04:08:27.716Z,39.17
2023-05-08T04:09:27.726Z,39.21
2023-05-08T04:10:27.692Z,39.16
2023-05-08T04:11:27.684Z,39.19
2023-05-08T04:12:27.678Z,39.17
2023-05-08T04:13:27.874Z,39.18
2023-05-08T04:14:27.667Z,39.15
2023-05-08T04:15:27.703Z,39.17
2023-05-08T04:16:27.708Z,39.18
2023-05-08T04:17:27.696Z,39.19
2023-05-08T04:18:27.644Z,39.16
2023-05-08T04:19:27.713Z,39.18
2023-05-08T04:20:27.767Z,39.16
2023-05-08T04:21:27.810Z,39.15
2023-05-08T04:22:27.842Z,39.18
2023-05-08T04:23:27.912Z,39.18
2023-05-08T04:24:27.918Z,39.14
2023-05-08T04:25:27.976Z,39.17
2023-05-08T04:26:28.023Z,39.16
2023-05-08T04:27:28.071Z,39.15
2023-05-08T04:28:28.157Z,39.16
2023-05-08T04:29:28.194Z,39.14
2023-05-08T04:30:28.231Z,39.16
2023-05-08T04:31:28.287Z,39.18
2023-05-08T04:32:28.346Z,39.16
2023-05-08T04:33:28.405Z,39.14
2023-05-08T04:34:28.415Z,39.17
2023-05-08T04:35:28.482Z,39.13
2023-05-08T04:36:28.510Z,39.16
2023-05-08T04:37:28.566Z,39.17
2023-05-08T04:38:28.636Z,39.12
2023-05-08T04:39:28.654Z,39.17
2023-05-08T04:40:28.677Z,39.17
2023-05-08T04:41:28.801Z,39.18
2023-05-08T04:42:28.778Z,39.17
2023-05-08T04:43:28.827Z,39.16
2023-05-08T04:44:28.866Z,39.15
2023-05-08T04:45:28.941Z,39.13
2023-05-08T04:46:29.017Z,39.18
2023-05-08T04:47:29.140Z,39.16
2023-05-08T04:48:29.051Z,39.18
2023-05-08T04:49:29.132Z,39.17
2023-05-08T04:50:29.168Z,39.15
2023-05-08T04:51:29.257Z,39.14
2023-05-08T04:52:29.259Z,39.16
2023-05-08T04:53:29.310Z,39.18
2023-05-08T04:54:29.342Z,39.15
2023-05-08T04:55:29.413Z,39.15
2023-05-08T04:56:29.506Z,39.16
2023-05-08T04:57:29.473Z,39.15
2023-05-08T04:58:29.524Z,39.17
2023-05-08T04:59:29.616Z,39.15
2023-05-08T05:00:29.626Z,39.15
2023-05-08T05:01:29.722Z,39.16
2023-05-08T05:02:29.792Z,39.14
2023-05-08T05:03:29.825Z,39.14
2023-05-08T05:04:29.796Z,39.17
2023-05-08T05:05:29.876Z,39.17
2023-05-08T05:06:29.904Z,39.14
2023-05-08T05:07:29.957Z,39.17
2023-05-08T05:08:29.980Z,39.18
2023-05-08T05:09:30.035Z,39.17
2023-05-08T05:10:30.104Z,39.16
2023-05-08T05:11:30.129Z,39.15
2023-05-08T05:12:30.193Z,39.16
2023-05-08T05:13:30.256Z,39.16
2023-05-08T05:14:30.255Z,39.16
2023-05-08T05:15:30.333Z,39.16
2023-05-08T05:16:30.404Z,39.15
2023-05-08T05:17:30.408Z,39.16
2023-05-08T05:18:30.442Z,39.14
2023-05-08T05:19:30.508Z,39.15
2023-05-08T05:20:30.558Z,39.16
2023-05-08T05:21:30.621Z,39.16
2023-05-08T05:22:30.644Z,39.15
2023-05-08T05:23:30.694Z,39.17
2023-05-08T05:24:30.710Z,39.16
2023-05-08T05:25:30.782Z,39.16
2023-05-08T05:26:30.826Z,39.14
2023-05-08T05:27:30.874Z,39.15
2023-05-08T05:28:30.929Z,39.14
2023-05-08T05:29:30.979Z,39.16
2023-05-08T05:30:31.048Z,39.15
2023-05-08T05:31:31.096Z,39.13
2023-05-08T05:32:31.144Z,39.15
2023-05-08T05:33:31.199Z,39.41
2023-05-08T05:34:31.240Z,39.49
2023-05-08T05:35:31.281Z,39.87
2023-05-08T05:36:31.305Z,41.40
2023-05-08T05:37:31.471Z,42.83
2023-05-08T05:38:31.394Z,42.58
2023-05-08T05:39:31.495Z,42.57
2023-05-08T05:40:31.539Z,43.28
2023-05-08T05:41:31.549Z,44.00
2023-05-08T05:42:31.587Z,43.92
2023-05-08T05:43:31.678Z,44.40
2023-05-08T05:44:31.651Z,45.07
2023-05-08T05:45:33.615Z,45.24
2023-05-08T05:46:31.750Z,45.34
2023-05-08T05:47:31.720Z,45.67
2023-05-08T05:48:31.723Z,46.03
2023-05-08T05:49:31.694Z,45.76
2023-05-08T05:50:31.755Z,45.79
2023-05-08T05:51:31.687Z,45.91
2023-05-08T05:52:31.701Z,46.04
2023-05-08T05:53:31.771Z,45.80
2023-05-08T05:54:31.776Z,45.97
2023-05-08T05:55:31.916Z,46.18
2023-05-08T05:56:31.919Z,45.72
2023-05-08T05:57:31.993Z,45.65
2023-05-08T05:58:32.062Z,45.79
2023-05-08T05:59:32.120Z,46.19
2023-05-08T06:00:32.160Z,45.91
2023-05-08T06:01:32.232Z,45.56
2023-05-08T06:02:32.387Z,45.68
2023-05-08T06:03:32.441Z,45.54
2023-05-08T06:04:32.423Z,45.39
2023-05-08T06:05:32.362Z,45.24
2023-05-08T06:06:32.480Z,45.20
2023-05-08T06:07:32.425Z,45.85
2023-05-08T06:08:32.490Z,45.38
2023-05-08T06:09:32.550Z,44.84
2023-05-08T06:10:32.546Z,44.94
2023-05-08T06:11:32.522Z,44.86
2023-05-08T06:12:32.551Z,44.68
2023-05-08T06:13:32.714Z,44.65
2023-05-08T06:14:32.584Z,44.55
2023-05-08T06:15:32.576Z,44.71
2023-05-08T06:16:32.637Z,44.63
2023-05-08T06:17:32.853Z,44.20
2023-05-08T06:18:32.770Z,44.27
2023-05-08T06:19:32.656Z,44.01
2023-05-08T06:20:32.696Z,44.23
2023-05-08T06:21:32.641Z,43.85
2023-05-08T06:22:32.756Z,43.96
2023-05-08T06:23:32.713Z,43.73
2023-05-08T06:24:32.717Z,43.44
2023-05-08T06:25:32.673Z,43.54
2023-05-08T06:26:32.738Z,43.31
2023-05-08T06:27:32.696Z,43.30
2023-05-08T06:28:32.670Z,43.41
2023-05-08T06:29:32.678Z,43.37
2023-05-08T06:30:32.713Z,43.48
2023-05-08T06:31:32.836Z,43.48
2023-05-08T06:32:32.695Z,43.26
2023-05-08T06:33:32.679Z,43.13
2023-05-08T06:34:32.711Z,43.22
2023-05-08T06:35:32.701Z,43.09
2023-05-08T06:36:32.687Z,42.81
2023-05-08T06:37:32.674Z,42.75
2023-05-08T06:38:32.702Z,42.91
2023-05-08T06:39:32.722Z,43.09
2023-05-08T06:40:32.749Z,43.13
2023-05-08T06:41:32.764Z,43.14
2023-05-08T06:42:32.831Z,43.16
2023-05-08T06:43:32.792Z,43.19
2023-05-08T06:44:32.858Z,43.34
2023-05-08T06:45:32.885Z,43.31
2023-05-08T06:46:32.960Z,43.38
2023-05-08T06:47:33.006Z,43.43
2023-05-08T06:48:32.992Z,43.32
2023-05-08T06:49:33.086Z,43.54
2023-05-08T06:50:33.107Z,43.46
2023-05-08T06:51:33.157Z,43.47
2023-05-08T06:52:33.238Z,43.66
2023-05-08T06:53:33.290Z,43.62
2023-05-08T06:54:33.328Z,43.49
2023-05-08T06:55:33.556Z,43.49
2023-05-08T06:56:33.449Z,43.52
2023-05-08T06:57:33.562Z,43.36
2023-05-08T06:58:33.630Z,43.50
2023-05-08T06:59:33.643Z,43.69
2023-05-08T07:00:33.673Z,43.64
2023-05-08T07:01:33.689Z,43.64
2023-05-08T07:02:33.776Z,43.81
2023-05-08T07:03:33.719Z,43.89
2023-05-08T07:04:33.796Z,43.77
2023-05-08T07:05:33.772Z,43.88
2023-05-08T07:06:33.782Z,43.90
2023-05-08T07:07:33.789Z,43.96
2023-05-08T07:08:33.774Z,44.04
2023-05-08T07:09:33.761Z,43.88
2023-05-08T07:10:33.777Z,43.93
2023-05-08T07:11:33.865Z,43.71
2023-05-08T07:12:33.801Z,43.93
2023-05-08T07:13:33.847Z,43.72
2023-05-08T07:14:33.846Z,43.85
2023-05-08T07:15:33.813Z,43.90
2023-05-08T07:16:33.864Z,43.98
2023-05-08T07:17:33.826Z,44.05
2023-05-08T07:18:33.809Z,43.96
2023-05-08T07:19:33.767Z,43.96
2023-05-08T07:20:34.801Z,44.00
2023-05-08T07:21:33.800Z,43.99
2023-05-08T07:22:33.809Z,44.09
2023-05-08T07:23:33.841Z,43.99
2023-05-08T07:24:33.826Z,44.04
2023-05-08T07:25:33.890Z,44.01
2023-05-08T07:26:33.852Z,44.06
2023-05-08T07:27:33.916Z,44.05
2023-05-08T07:28:33.929Z,44.08
2023-05-08T07:29:33.910Z,44.08
2023-05-08T07:30:34.313Z,44.09
2023-05-08T07:31:33.971Z,43.99
2023-05-08T07:32:34.022Z,44.42
2023-05-08T07:33:33.986Z,45.34
2023-05-08T07:34:34.160Z,45.96
2023-05-08T07:35:34.296Z,46.56
2023-05-08T07:36:34.042Z,46.47
2023-05-08T07:37:34.289Z,46.41
2023-05-08T07:38:34.052Z,46.96
2023-05-08T07:39:34.040Z,47.01
2023-05-08T07:40:34.153Z,46.91
2023-05-08T07:41:34.224Z,47.21
2023-05-08T07:42:34.304Z,47.67
2023-05-08T07:43:34.280Z,48.18
2023-05-08T07:44:43.543Z,48.44
2023-05-08T07:45:35.331Z,48.48
2023-05-08T07:46:34.390Z,48.76
2023-05-08T07:47:34.381Z,48.71
2023-05-08T07:48:34.267Z,48.76
2023-05-08T07:49:34.236Z,48.99
2023-05-08T07:50:34.337Z,49.00
2023-05-08T07:51:34.242Z,49.13
2023-05-08T07:52:34.230Z,49.13
2023-05-08T07:53:34.267Z,49.12
2023-05-08T07:54:34.364Z,49.00
2023-05-08T07:55:34.345Z,49.18
2023-05-08T07:56:34.193Z,49.18
2023-05-08T07:57:34.186Z,49.58
2023-05-08T07:58:34.191Z,49.57
2023-05-08T07:59:34.209Z,49.47
2023-05-08T08:00:34.223Z,49.46
2023-05-08T08:01:34.165Z,49.73
2023-05-08T08:02:34.244Z,49.68
2023-05-08T08:03:34.316Z,49.75
2023-05-08T08:04:34.205Z,49.94
2023-05-08T08:05:34.181Z,49.80
2023-05-08T08:06:34.162Z,49.63
2023-05-08T08:07:34.402Z,49.75
2023-05-08T08:08:34.282Z,49.80
2023-05-08T08:09:34.286Z,49.95
2023-05-08T08:10:43.829Z,50.03
2023-05-08T08:11:34.286Z,49.98
2023-05-08T08:12:34.317Z,50.15
2023-05-08T08:13:34.474Z,50.01
2023-05-08T08:14:34.287Z,50.03
2023-05-08T08:15:34.360Z,50.03
2023-05-08T08:16:34.275Z,50.06
2023-05-08T08:17:34.342Z,50.08
2023-05-08T08:18:34.271Z,50.05
2023-05-08T08:19:34.234Z,50.08
2023-05-08T08:20:34.282Z,50.13
2023-05-08T08:21:34.241Z,50.09
2023-05-08T08:22:34.223Z,49.96
2023-05-08T08:23:34.271Z,48.32
2023-05-08T08:24:34.263Z,47.06
2023-05-08T08:25:34.233Z,45.35
2023-05-08T08:26:34.197Z,45.58
2023-05-08T08:27:34.246Z,45.92
2023-05-08T08:28:34.213Z,45.96
2023-05-08T08:29:34.182Z,46.08
2023-05-08T08:30:34.222Z,45.93
2023-05-08T08:31:34.381Z,45.89
2023-05-08T08:32:34.205Z,45.94
2023-05-08T08:33:34.168Z,46.07
2023-05-08T08:34:34.144Z,45.90
2023-05-08T08:35:34.148Z,45.86
2023-05-08T08:36:34.156Z,45.98
2023-05-08T08:37:34.149Z,46.02
2023-05-08T08:38:34.150Z,46.00
2023-05-08T08:39:43.339Z,45.97
2023-05-08T08:40:34.368Z,46.25
2023-05-08T08:41:34.107Z,46.58
2023-05-08T08:42:34.233Z,47.14
2023-05-08T08:43:34.361Z,47.00
2023-05-08T08:44:34.122Z,47.08
2023-05-08T08:45:34.066Z,46.96
2023-05-08T08:46:34.120Z,46.81
2023-05-08T08:47:34.196Z,46.98
2023-05-08T08:48:34.047Z,46.76
2023-05-08T08:49:34.068Z,46.92
2023-05-08T08:50:34.036Z,46.91
2023-05-08T08:51:34.019Z,46.65
2023-05-08T08:52:34.017Z,46.50
2023-05-08T08:53:34.021Z,46.75
2023-05-08T08:54:34.067Z,46.50
2023-05-08T08:55:34.410Z,46.48
2023-05-08T08:56:34.012Z,45.92
2023-05-08T08:57:34.008Z,45.78
2023-05-08T08:58:34.412Z,45.80
2023-05-08T08:59:33.992Z,45.74
2023-05-08T09:00:33.996Z,45.41
2023-05-08T09:01:34.062Z,45.51
2023-05-08T09:02:34.087Z,45.50
2023-05-08T09:03:34.197Z,45.21
2023-05-08T09:04:33.931Z,45.16
2023-05-08T09:05:33.964Z,45.19
2023-05-08T09:06:33.932Z,45.10
2023-05-08T09:07:33.909Z,44.90
2023-05-08T09:08:33.899Z,44.86
2023-05-08T09:09:33.916Z,44.60
2023-05-08T09:10:33.964Z,44.62
2023-05-08T09:11:33.901Z,44.46
2023-05-08T09:12:33.911Z,44.10
2023-05-08T09:13:33.981Z,44.08
2023-05-08T09:14:33.901Z,43.85
2023-05-08T09:15:33.872Z,43.71
2023-05-08T09:16:33.884Z,43.85
2023-05-08T09:17:33.881Z,43.89
2023-05-08T09:18:33.872Z,44.00
2023-05-08T09:19:33.953Z,43.88
2023-05-08T09:20:33.896Z,43.82
2023-05-08T09:21:33.824Z,43.80
2023-05-08T09:22:33.812Z,43.75
2023-05-08T09:23:33.904Z,43.75
2023-05-08T09:24:33.856Z,43.65
2023-05-08T09:25:33.965Z,43.55
2023-05-08T09:26:34.010Z,43.61
2023-05-08T09:27:34.080Z,43.80
2023-05-08T09:28:34.134Z,43.95
2023-05-08T09:29:34.176Z,43.93
2023-05-08T09:30:34.246Z,43.91
2023-05-08T09:31:34.350Z,43.90
2023-05-08T09:32:34.386Z,43.58
2023-05-08T09:33:34.419Z,43.93
2023-05-08T09:34:34.465Z,43.69
2023-05-08T09:35:34.614Z,43.82
2023-05-08T09:36:34.594Z,44.13
2023-05-08T09:37:34.638Z,44.15
2023-05-08T09:38:34.851Z,44.17
2023-05-08T09:39:34.779Z,43.98
2023-05-08T09:40:34.941Z,43.73
2023-05-08T09:41:34.918Z,43.93
2023-05-08T09:42:34.968Z,43.98
2023-05-08T09:43:35.360Z,43.64
2023-05-08T09:44:35.065Z,43.77
2023-05-08T09:45:35.691Z,43.53
2023-05-08T09:46:35.252Z,43.38
2023-05-08T09:47:35.263Z,43.69
2023-05-08T09:48:35.315Z,43.56
2023-05-08T09:49:35.362Z,43.96
2023-05-08T09:50:35.423Z,43.51
2023-05-08T09:51:35.557Z,43.32
2023-05-08T09:52:35.563Z,43.27
2023-05-08T09:53:35.881Z,43.67
2023-05-08T09:54:35.698Z,43.75
2023-05-08T09:55:35.730Z,43.96
2023-05-08T09:56:35.816Z,44.18
2023-05-08T09:57:36.431Z,44.54
2023-05-08T09:58:35.891Z,44.08
2023-05-08T09:59:36.009Z,44.14
2023-05-08T10:00:36.031Z,44.26
2023-05-08T10:01:36.658Z,44.41
2023-05-08T10:02:36.132Z,44.45
2023-05-08T10:03:36.249Z,44.41
2023-05-08T10:04:36.297Z,44.48
2023-05-08T10:05:36.318Z,44.57
2023-05-08T10:06:36.396Z,44.40
2023-05-08T10:07:36.504Z,44.48
2023-05-08T10:08:36.417Z,44.37
2023-05-08T10:09:49.850Z,44.47
2023-05-08T10:10:37.477Z,44.64
2023-05-08T10:11:36.468Z,44.53
2023-05-08T10:12:36.490Z,44.56
2023-05-08T10:13:36.459Z,44.76
2023-05-08T10:14:36.813Z,44.57
2023-05-08T10:15:36.490Z,44.76
2023-05-08T10:16:36.493Z,44.90
2023-05-08T10:17:36.499Z,44.63
2023-05-08T10:18:36.397Z,44.50
2023-05-08T10:19:36.614Z,45.32
2023-05-08T10:20:36.549Z,44.61
2023-05-08T10:21:36.552Z,44.90
2023-05-08T10:22:36.616Z,44.75
2023-05-08T10:23:36.707Z,44.74
2023-05-08T10:24:36.653Z,44.66
2023-05-08T10:25:36.718Z,44.62
2023-05-08T10:26:36.782Z,44.89
2023-05-08T10:27:36.818Z,44.92
2023-05-08T10:28:36.901Z,45.02
2023-05-08T10:29:36.924Z,44.95
2023-05-08T10:30:36.983Z,44.82
2023-05-08T10:31:37.177Z,44.78
2023-05-08T10:32:37.090Z,44.60
2023-05-08T10:33:37.111Z,44.08
2023-05-08T10:34:37.165Z,44.14
2023-05-08T10:35:37.234Z,44.37
2023-05-08T10:36:37.251Z,44.58
2023-05-08T10:37:37.290Z,44.79
2023-05-08T10:38:37.352Z,44.62
2023-05-08T10:39:37.993Z,44.37
2023-05-08T10:40:37.445Z,44.76
2023-05-08T10:41:37.498Z,44.63
2023-05-08T10:42:37.522Z,44.54
2023-05-08T10:43:37.565Z,44.59
2023-05-08T10:44:37.634Z,44.95
2023-05-08T10:45:37.668Z,44.56
2023-05-08T10:46:37.745Z,44.72
2023-05-08T10:47:37.791Z,44.87
2023-05-08T10:48:37.774Z,44.54
2023-05-08T10:49:37.880Z,44.47
2023-05-08T10:50:37.893Z,44.52
2023-05-08T10:51:37.927Z,44.86
2023-05-08T10:52:37.969Z,44.89
2023-05-08T10:53:38.028Z,44.45
2023-05-08T10:54:38.038Z,44.26
2023-05-08T10:55:38.091Z,44.21
2023-05-08T10:56:38.116Z,44.37
2023-05-08T10:57:38.197Z,43.52
2023-05-08T10:58:38.227Z,43.64
2023-05-08T10:59:38.221Z,43.62
2023-05-08T11:00:38.277Z,43.72
2023-05-08T11:01:38.360Z,43.45
2023-05-08T11:02:38.473Z,43.89
2023-05-08T11:03:38.477Z,43.82
2023-05-08T11:04:38.505Z,43.84
2023-05-08T11:05:38.495Z,43.90
2023-05-08T11:06:38.591Z,43.98
2023-05-08T11:07:38.581Z,43.91
2023-05-08T11:08:38.814Z,44.12
2023-05-08T11:09:38.667Z,44.22
2023-05-08T11:10:38.693Z,44.35
2023-05-08T11:11:38.741Z,44.62
2023-05-08T11:12:38.857Z,44.69
2023-05-08T11:13:38.827Z,44.59
2023-05-08T11:14:38.855Z,44.70
2023-05-08T11:15:38.940Z,44.86
2023-05-08T11:16:39.227Z,45.15
2023-05-08T11:17:39.005Z,45.32
2023-05-08T11:18:49.102Z,45.30
2023-05-08T11:19:40.037Z,45.24
2023-05-08T11:20:38.974Z,45.22
2023-05-08T11:21:39.003Z,45.04
2023-05-08T11:22:38.972Z,44.90
2023-05-08T11:23:39.454Z,44.91
2023-05-08T11:24:39.909Z,44.95
2023-05-08T11:25:38.993Z,45.01
2023-05-08T11:26:38.935Z,45.00
2023-05-08T11:27:38.949Z,45.08
2023-05-08T11:28:39.409Z,45.14
2023-05-08T11:29:39.034Z,45.16
2023-05-08T11:30:38.947Z,45.17
2023-05-08T11:31:38.938Z,45.20
2023-05-08T11:32:39.002Z,45.26
2023-05-08T11:33:39.004Z,45.21
2023-05-08T11:34:39.079Z,45.22
2023-05-08T11:35:39.138Z,45.25
2023-05-08T11:36:39.203Z,45.23
2023-05-08T11:37:39.182Z,45.26
2023-05-08T11:38:39.250Z,45.29
2023-05-08T11:39:39.937Z,45.26
2023-05-08T11:40:39.331Z,45.23
2023-05-08T11:41:39.398Z,45.25
2023-05-08T11:42:39.449Z,45.24
2023-05-08T11:43:39.541Z,45.28
2023-05-08T11:44:39.599Z,45.30
2023-05-08T11:45:39.620Z,45.32
2023-05-08T11:46:39.805Z,45.29
2023-05-08T11:47:39.854Z,45.28
2023-05-08T11:48:39.809Z,45.28
2023-05-08T11:49:39.859Z,45.28
2023-05-08T11:50:39.913Z,45.29
2023-05-08T11:51:39.987Z,45.25
2023-05-08T11:52:40.093Z,45.27
2023-05-08T11:53:40.125Z,45.26
2023-05-08T11:54:40.260Z,45.27
2023-05-08T11:55:40.233Z,45.33
2023-05-08T11:56:40.297Z,45.27
2023-05-08T11:57:40.333Z,45.27
2023-05-08T11:58:40.381Z,45.25
2023-05-08T11:59:40.415Z,45.27
2023-05-08T12:00:40.534Z,45.29
2023-05-08T12:01:40.567Z,45.27
2023-05-08T12:02:40.638Z,45.29
2023-05-08T12:03:40.693Z,45.26
2023-05-08T12:04:40.658Z,45.28
2023-05-08T12:05:40.698Z,45.22
2023-05-08T12:06:40.736Z,45.27
2023-05-08T12:07:40.755Z,45.27
2023-05-08T12:08:40.757Z,45.26
2023-05-08T12:09:40.812Z,45.28
2023-05-08T12:10:40.825Z,45.22
2023-05-08T12:11:40.841Z,45.20
2023-05-08T12:12:40.951Z,45.20
2023-05-08T12:13:40.882Z,45.26
2023-05-08T12:14:41.422Z,45.24
2023-05-08T12:15:40.944Z,45.25
2023-05-08T12:16:41.011Z,45.24
2023-05-08T12:17:41.950Z,45.20
2023-05-08T12:18:40.939Z,45.19
2023-05-08T12:19:40.954Z,45.21
2023-05-08T12:20:40.980Z,45.17
2023-05-08T12:21:41.057Z,45.18
2023-05-08T12:22:41.029Z,45.21
2023-05-08T12:23:41.052Z,44.01
2023-05-08T12:24:41.004Z,44.43
2023-05-08T12:25:41.016Z,44.53
2023-05-08T12:26:41.496Z,44.43
2023-05-08T12:27:41.005Z,44.31
2023-05-08T12:28:41.448Z,44.04
2023-05-08T12:29:41.003Z,44.12
2023-05-08T12:30:41.017Z,43.75
2023-05-08T12:31:41.081Z,43.85
2023-05-08T12:32:41.078Z,43.67
2023-05-08T12:33:41.008Z,43.54
2023-05-08T12:34:41.029Z,43.49
2023-05-08T12:35:41.010Z,43.52
2023-05-08T12:36:41.010Z,43.63
2023-05-08T12:37:41.427Z,43.25
2023-05-08T12:38:40.994Z,43.06
2023-05-08T12:39:41.015Z,43.32
2023-05-08T12:40:41.007Z,43.30
2023-05-08T12:41:41.011Z,43.12
2023-05-08T12:42:41.027Z,43.05
2023-05-08T12:43:41.030Z,42.97
2023-05-08T12:44:41.006Z,42.86
2023-05-08T12:45:41.001Z,42.80
2023-05-08T12:46:41.034Z,42.72
2023-05-08T12:47:41.160Z,42.66
2023-05-08T12:48:41.038Z,42.83
2023-05-08T12:49:41.032Z,42.86
2023-05-08T12:50:41.020Z,42.57
2023-05-08T12:51:41.004Z,42.79
2023-05-08T12:52:41.023Z,42.91